Humidity-temperature Sensor

Selected Measurement Type: Relative Humidity

 
Relative Humidity [%]     6 entries per hour
Showing data from 6/11/2017 (00:00:00 Z) to 6/8/2017 (00:01:00 Z)
Previous Next [ Day | 3-Days | 7-Days ]
First Last
Prev [ Day | 3-Days | 7-Days ] Next
First Last

Start Time:     :
End Time:     :     
Time (in GMT) :00 :50 :40 :30 :20 :10
Previous Next [ Day | 3-Days | 7-Days ]
First Last
Prev [ Day | 3-Days | 7-Days ] Next
First Last


123 => good data
MM => data is determined as missing
-- => data not received/configured
Back to Top Back to Top
6/11/2017 00:00 to 23:10 92.57 92.21 92.05 92.31 91.91 92.11
6/10/2017 23:00 to 22:10 92.93 93.13 92.79 92.73 91.12 91.08
6/10/2017 22:00 to 21:10 91.12 91.46 91.50 91.36 91.59 91.50
6/10/2017 21:00 to 20:10 91.38 91.02 91.67 92.13 92.93 92.21
6/10/2017 20:00 to 19:10 91.71 91.50 90.86 90.50 91.28 91.73
6/10/2017 19:00 to 18:10 91.08 93.98 94.22 94.00 95.74 97.69
6/10/2017 18:00 to 17:10 -- -- -- -- -- --
6/10/2017 17:00 to 16:10 94.98 96.28 96.28 92.99 93.03 93.45
6/10/2017 16:00 to 15:10 93.05 93.43 92.79 93.21 92.57 93.49
6/10/2017 15:00 to 14:10 92.57 93.59 93.01 93.11 93.45 92.31
6/10/2017 14:00 to 13:10 93.41 93.89 92.87 93.03 92.45 91.93
6/10/2017 13:00 to 12:10 91.30 91.63 91.89 92.43 92.95 91.69
6/10/2017 12:00 to 11:10 91.93 91.24 93.51 92.21 92.01 92.25
6/10/2017 11:00 to 10:10 92.03 91.42 91.67 92.13 91.59 91.59
6/10/2017 10:00 to 9:10 90.80 93.65 93.69 94.14 93.43 93.33
6/10/2017 09:00 to 8:10 93.33 92.99 92.85 93.31 94.18 95.14
6/10/2017 08:00 to 7:10 94.02 94.62 94.58 94.38 93.77 94.44
6/10/2017 07:00 to 6:10 95.36 95.22 94.56 93.83 94.36 94.70
6/10/2017 06:00 to 5:10 94.78 94.68 94.92 93.94 93.67 93.25
6/10/2017 05:00 to 4:10 94.00 93.39 92.87 94.20 93.77 93.83
6/10/2017 04:00 to 3:10 94.54 94.78 94.62 94.50 93.51 92.97
6/10/2017 03:00 to 2:10 94.02 94.72 94.32 93.73 94.64 94.32
6/10/2017 02:00 to 1:10 -- -- -- -- -- --
6/10/2017 01:00 to 0:10 92.97 92.27 92.49 92.91 93.63 93.96
6/10/2017 00:00 to 23:10 -- -- -- -- -- --
6/9/2017 23:00 to 22:10 93.53 93.57 93.85 92.73 93.05 93.85
6/9/2017 22:00 to 21:10 94.54 94.84 93.67 93.67 92.77 92.87
6/9/2017 21:00 to 20:10 93.11 93.39 93.91 94.12 92.55 92.63
6/9/2017 20:00 to 19:10 92.51 92.25 91.97 92.71 92.61 93.03
6/9/2017 19:00 to 18:10 93.57 93.87 93.45 93.31 93.27 92.89
6/9/2017 18:00 to 17:10 94.66 94.40 94.20 94.02 93.43 93.67
6/9/2017 17:00 to 16:10 93.81 92.85 93.11 94.26 92.61 92.49
6/9/2017 16:00 to 15:10 93.43 95.12 95.38 94.10 94.26 94.26
6/9/2017 15:00 to 14:10 -- -- -- -- -- --
6/9/2017 14:00 to 13:10 94.76 94.24 94.00 93.69 94.68 95.50
6/9/2017 13:00 to 12:10 95.94 95.76 95.52 95.80 96.08 95.76
6/9/2017 12:00 to 11:10 95.94 96.43 96.26 96.93 96.43 97.81
6/9/2017 11:00 to 10:10 98.27 99.26 99.88 99.90 99.84 96.81
6/9/2017 10:00 to 9:10 96.75 96.95 96.41 97.15 97.31 96.97
6/9/2017 09:00 to 8:10 97.19 98.03 98.27 98.33 98.19 97.81
6/9/2017 08:00 to 7:10 97.09 97.17 97.47 97.31 97.57 97.45
6/9/2017 07:00 to 6:10 97.29 97.19 97.11 97.09 97.45 97.59
6/9/2017 06:00 to 5:10 97.57 97.81 97.85 97.73 98.39 98.09
6/9/2017 05:00 to 4:10 97.97 97.67 97.11 96.79 96.95 97.17
6/9/2017 04:00 to 3:10 -- -- -- -- -- --
6/9/2017 03:00 to 2:10 97.13 97.59 98.05 97.87 97.73 97.71
6/9/2017 02:00 to 1:10 98.11 97.85 98.29 97.57 97.47 97.53
6/9/2017 01:00 to 0:10 97.53 97.77 98.13 98.43 98.59 98.37
6/9/2017 00:00 to 23:10 98.27 98.39 98.29 98.07 98.19 97.79
6/8/2017 23:00 to 22:10 98.23 98.11 98.19 97.83 97.83 98.09
6/8/2017 22:00 to 21:10 98.25 98.59 98.43 98.31 98.41 98.25
6/8/2017 21:00 to 20:10 98.39 98.86 99.02 99.18 99.50 99.58
6/8/2017 20:00 to 19:10 99.66 99.76 99.76 99.70 99.86 99.60
6/8/2017 19:00 to 18:10 99.62 99.48 99.46 99.54 99.64 99.18
6/8/2017 18:00 to 17:10 99.14 98.71 98.51 98.23 98.19 97.51
6/8/2017 17:00 to 16:10 97.61 97.69 97.95 97.83 97.41 97.91
6/8/2017 16:00 to 15:10 97.75 97.47 97.95 98.80 98.73 98.61
6/8/2017 15:00 to 14:10 98.63 98.09 97.89 97.91 98.47 99.46
6/8/2017 14:00 to 13:10 99.74 99.88 99.90 99.88 99.68 99.78
6/8/2017 13:00 to 12:10 99.88 99.90 99.88 99.84 99.90 99.90
6/8/2017 12:00 to 11:10 -- -- -- -- -- --
6/8/2017 11:00 to 10:10 99.90 99.90 99.90 99.90 99.90 99.90
6/8/2017 10:00 to 9:10 99.90 99.90 99.90 99.90 99.90 99.90
6/8/2017 09:00 to 8:10 99.90 99.90 99.90 99.90 99.90 99.88
6/8/2017 08:00 to 7:10 99.78 99.88 99.90 99.90 99.90 99.90
6/8/2017 07:00 to 6:10 99.90 99.90 99.90 99.90 99.90 99.88
6/8/2017 06:00 to 5:10 99.70 99.26 99.46 99.52 99.64 99.66
6/8/2017 05:00 to 4:10 99.88 99.74 99.54 99.34 99.00 99.12
6/8/2017 04:00 to 3:10 98.98 99.16 99.24 99.22 98.65 99.08
6/8/2017 03:00 to 2:10 99.34 99.36 99.48 99.36 99.16 99.12
6/8/2017 02:00 to 1:10 98.11 97.25 96.26 95.98 95.26 95.48
6/8/2017 01:00 to 0:10 94.76 95.06 94.72 95.00 95.86 97.33